sensor_id;sensor_type;location;lat;lon;timestamp;P1;durP1;ratioP1;P2;durP2;ratioP2
38338;SDS011;37117;50.050;19.924;2023-02-28T00:00:41;19.60;;;9.90;;
38338;SDS011;37117;50.050;19.924;2023-02-28T00:03:18;20.80;;;10.70;;
38338;SDS011;37117;50.050;19.924;2023-02-28T00:05:49;21.70;;;10.30;;
38338;SDS011;37117;50.050;19.924;2023-02-28T00:08:20;18.40;;;11.70;;
38338;SDS011;37117;50.050;19.924;2023-02-28T00:10:51;21.10;;;10.70;;
38338;SDS011;37117;50.050;19.924;2023-02-28T00:13:22;18.40;;;9.40;;
38338;SDS011;37117;50.050;19.924;2023-02-28T00:16:00;19.10;;;10.00;;
38338;SDS011;37117;50.050;19.924;2023-02-28T00:18:31;22.20;;;10.20;;
38338;SDS011;37117;50.050;19.924;2023-02-28T00:21:02;20.90;;;9.90;;
38338;SDS011;37117;50.050;19.924;2023-02-28T00:23:33;20.10;;;9.70;;
38338;SDS011;37117;50.050;19.924;2023-02-28T00:26:05;17.70;;;10.30;;
38338;SDS011;37117;50.050;19.924;2023-02-28T00:28:36;19.30;;;10.20;;
38338;SDS011;37117;50.050;19.924;2023-02-28T00:31:07;18.20;;;8.90;;
38338;SDS011;37117;50.050;19.924;2023-02-28T00:33:38;16.00;;;8.90;;
38338;SDS011;37117;50.050;19.924;2023-02-28T00:36:10;17.10;;;9.30;;
38338;SDS011;37117;50.050;19.924;2023-02-28T00:38:41;23.70;;;10.20;;
38338;SDS011;37117;50.050;19.924;2023-02-28T00:41:12;17.70;;;10.10;;
38338;SDS011;37117;50.050;19.924;2023-02-28T00:43:44;17.50;;;9.50;;
38338;SDS011;37117;50.050;19.924;2023-02-28T00:46:15;18.30;;;9.20;;
38338;SDS011;37117;50.050;19.924;2023-02-28T00:48:46;18.30;;;9.20;;
38338;SDS011;37117;50.050;19.924;2023-02-28T00:51:17;14.30;;;8.70;;
38338;SDS011;37117;50.050;19.924;2023-02-28T00:53:48;16.50;;;9.00;;
38338;SDS011;37117;50.050;19.924;2023-02-28T00:56:19;17.40;;;10.30;;
38338;SDS011;37117;50.050;19.924;2023-02-28T00:58:50;19.80;;;11.20;;
38338;SDS011;37117;50.050;19.924;2023-02-28T01:01:21;15.60;;;9.70;;
38338;SDS011;37117;50.050;19.924;2023-02-28T01:03:52;21.20;;;12.40;;
38338;SDS011;37117;50.050;19.924;2023-02-28T01:06:23;20.40;;;11.60;;
38338;SDS011;37117;50.050;19.924;2023-02-28T01:08:53;20.00;;;11.30;;
38338;SDS011;37117;50.050;19.924;2023-02-28T01:11:24;20.80;;;11.20;;
38338;SDS011;37117;50.050;19.924;2023-02-28T01:13:56;19.50;;;10.90;;
38338;SDS011;37117;50.050;19.924;2023-02-28T01:16:27;21.10;;;11.70;;
38338;SDS011;37117;50.050;19.924;2023-02-28T01:18:57;21.20;;;11.20;;
38338;SDS011;37117;50.050;19.924;2023-02-28T01:21:29;21.50;;;10.60;;
38338;SDS011;37117;50.050;19.924;2023-02-28T01:24:00;19.20;;;10.60;;
38338;SDS011;37117;50.050;19.924;2023-02-28T01:26:31;23.30;;;12.70;;
38338;SDS011;37117;50.050;19.924;2023-02-28T01:29:02;21.60;;;10.90;;
38338;SDS011;37117;50.050;19.924;2023-02-28T01:31:33;20.80;;;11.80;;
38338;SDS011;37117;50.050;19.924;2023-02-28T01:34:04;21.60;;;11.80;;
38338;SDS011;37117;50.050;19.924;2023-02-28T01:36:35;20.90;;;10.90;;
38338;SDS011;37117;50.050;19.924;2023-02-28T01:39:07;22.10;;;10.50;;
38338;SDS011;37117;50.050;19.924;2023-02-28T01:41:38;18.60;;;10.80;;
38338;SDS011;37117;50.050;19.924;2023-02-28T01:46:53;21.90;;;11.40;;
38338;SDS011;37117;50.050;19.924;2023-02-28T01:49:24;19.00;;;10.40;;
38338;SDS011;37117;50.050;19.924;2023-02-28T01:51:55;22.40;;;11.70;;
38338;SDS011;37117;50.050;19.924;2023-02-28T01:54:28;21.70;;;12.80;;
38338;SDS011;37117;50.050;19.924;2023-02-28T01:57:01;21.40;;;10.70;;
38338;SDS011;37117;50.050;19.924;2023-02-28T01:59:34;20.90;;;12.00;;
38338;SDS011;37117;50.050;19.924;2023-02-28T02:02:07;22.10;;;12.10;;
38338;SDS011;37117;50.050;19.924;2023-02-28T02:04:40;22.60;;;12.90;;
38338;SDS011;37117;50.050;19.924;2023-02-28T02:07:11;20.00;;;11.90;;
38338;SDS011;37117;50.050;19.924;2023-02-28T02:09:46;23.40;;;12.40;;
38338;SDS011;37117;50.050;19.924;2023-02-28T02:12:20;21.40;;;12.40;;
38338;SDS011;37117;50.050;19.924;2023-02-28T02:14:57;21.60;;;12.40;;
38338;SDS011;37117;50.050;19.924;2023-02-28T02:17:32;20.20;;;11.20;;
38338;SDS011;37117;50.050;19.924;2023-02-28T02:23:03;20.60;;;12.70;;
38338;SDS011;37117;50.050;19.924;2023-02-28T02:25:39;23.50;;;12.00;;
38338;SDS011;37117;50.050;19.924;2023-02-28T02:28:15;25.10;;;13.70;;
38338;SDS011;37117;50.050;19.924;2023-02-28T02:31:06;23.30;;;13.40;;
38338;SDS011;37117;50.050;19.924;2023-02-28T02:36:21;21.80;;;12.00;;
38338;SDS011;37117;50.050;19.924;2023-02-28T02:38:55;23.30;;;12.90;;
38338;SDS011;37117;50.050;19.924;2023-02-28T02:41:31;21.40;;;12.60;;
38338;SDS011;37117;50.050;19.924;2023-02-28T02:44:10;18.30;;;10.30;;
38338;SDS011;37117;50.050;19.924;2023-02-28T02:46:43;17.70;;;10.50;;
38338;SDS011;37117;50.050;19.924;2023-02-28T02:49:15;16.70;;;10.30;;
38338;SDS011;37117;50.050;19.924;2023-02-28T02:51:47;23.60;;;11.30;;
38338;SDS011;37117;50.050;19.924;2023-02-28T02:54:19;20.00;;;10.90;;
38338;SDS011;37117;50.050;19.924;2023-02-28T02:59:21;20.90;;;11.60;;
38338;SDS011;37117;50.050;19.924;2023-02-28T03:01:54;24.10;;;11.40;;
38338;SDS011;37117;50.050;19.924;2023-02-28T03:04:26;22.00;;;11.80;;
38338;SDS011;37117;50.050;19.924;2023-02-28T03:07:00;22.30;;;12.70;;
38338;SDS011;37117;50.050;19.924;2023-02-28T03:09:32;22.70;;;11.70;;
38338;SDS011;37117;50.050;19.924;2023-02-28T03:12:05;20.20;;;11.50;;
38338;SDS011;37117;50.050;19.924;2023-02-28T03:14:40;23.90;;;12.00;;
38338;SDS011;37117;50.050;19.924;2023-02-28T03:17:27;20.40;;;12.40;;
38338;SDS011;37117;50.050;19.924;2023-02-28T03:20:03;22.30;;;11.70;;
38338;SDS011;37117;50.050;19.924;2023-02-28T03:22:43;19.70;;;11.60;;
38338;SDS011;37117;50.050;19.924;2023-02-28T03:25:20;24.00;;;14.20;;
38338;SDS011;37117;50.050;19.924;2023-02-28T03:27:54;31.10;;;13.40;;
38338;SDS011;37117;50.050;19.924;2023-02-28T03:30:27;26.20;;;14.20;;
38338;SDS011;37117;50.050;19.924;2023-02-28T03:33:01;28.70;;;14.00;;
38338;SDS011;37117;50.050;19.924;2023-02-28T03:35:36;28.40;;;13.90;;
38338;SDS011;37117;50.050;19.924;2023-02-28T03:38:08;25.00;;;13.70;;
38338;SDS011;37117;50.050;19.924;2023-02-28T03:40:44;23.10;;;12.70;;
38338;SDS011;37117;50.050;19.924;2023-02-28T03:43:20;25.10;;;14.70;;
38338;SDS011;37117;50.050;19.924;2023-02-28T03:45:53;23.90;;;13.90;;
38338;SDS011;37117;50.050;19.924;2023-02-28T03:48:25;23.60;;;13.50;;
38338;SDS011;37117;50.050;19.924;2023-02-28T03:50:57;21.60;;;12.80;;
38338;SDS011;37117;50.050;19.924;2023-02-28T03:53:30;31.70;;;14.00;;
38338;SDS011;37117;50.050;19.924;2023-02-28T03:56:03;28.60;;;13.60;;
38338;SDS011;37117;50.050;19.924;2023-02-28T03:58:37;26.50;;;12.20;;
38338;SDS011;37117;50.050;19.924;2023-02-28T04:01:10;21.80;;;12.10;;
38338;SDS011;37117;50.050;19.924;2023-02-28T04:03:43;27.90;;;16.40;;
38338;SDS011;37117;50.050;19.924;2023-02-28T04:06:15;28.40;;;14.10;;
38338;SDS011;37117;50.050;19.924;2023-02-28T04:08:47;27.10;;;15.00;;
38338;SDS011;37117;50.050;19.924;2023-02-28T04:11:20;26.90;;;15.60;;
38338;SDS011;37117;50.050;19.924;2023-02-28T04:13:51;24.30;;;14.40;;
38338;SDS011;37117;50.050;19.924;2023-02-28T04:16:22;28.20;;;15.80;;
38338;SDS011;37117;50.050;19.924;2023-02-28T04:19:04;27.70;;;15.40;;
38338;SDS011;37117;50.050;19.924;2023-02-28T04:21:37;27.80;;;15.10;;
38338;SDS011;37117;50.050;19.924;2023-02-28T04:24:09;28.90;;;15.60;;
38338;SDS011;37117;50.050;19.924;2023-02-28T04:26:43;30.10;;;15.30;;
38338;SDS011;37117;50.050;19.924;2023-02-28T04:29:17;22.90;;;14.00;;
38338;SDS011;37117;50.050;19.924;2023-02-28T04:31:49;29.80;;;14.30;;
38338;SDS011;37117;50.050;19.924;2023-02-28T04:34:20;26.20;;;14.60;;
38338;SDS011;37117;50.050;19.924;2023-02-28T04:36:53;26.30;;;14.20;;
38338;SDS011;37117;50.050;19.924;2023-02-28T04:39:41;34.80;;;16.00;;
38338;SDS011;37117;50.050;19.924;2023-02-28T04:42:12;32.70;;;16.10;;
38338;SDS011;37117;50.050;19.924;2023-02-28T04:44:44;31.70;;;16.00;;
38338;SDS011;37117;50.050;19.924;2023-02-28T04:47:14;34.40;;;17.40;;
38338;SDS011;37117;50.050;19.924;2023-02-28T04:49:45;29.90;;;16.80;;
38338;SDS011;37117;50.050;19.924;2023-02-28T04:52:16;32.30;;;15.30;;
38338;SDS011;37117;50.050;19.924;2023-02-28T04:54:47;27.50;;;14.60;;
38338;SDS011;37117;50.050;19.924;2023-02-28T04:57:18;27.30;;;15.10;;
38338;SDS011;37117;50.050;19.924;2023-02-28T04:59:49;25.60;;;15.00;;
38338;SDS011;37117;50.050;19.924;2023-02-28T05:02:20;33.50;;;14.60;;
38338;SDS011;37117;50.050;19.924;2023-02-28T05:04:51;27.80;;;15.90;;
38338;SDS011;37117;50.050;19.924;2023-02-28T05:07:22;26.30;;;16.50;;
38338;SDS011;37117;50.050;19.924;2023-02-28T05:09:53;29.50;;;16.30;;
38338;SDS011;37117;50.050;19.924;2023-02-28T05:12:24;32.20;;;17.80;;
38338;SDS011;37117;50.050;19.924;2023-02-28T05:14:55;32.70;;;18.20;;
38338;SDS011;37117;50.050;19.924;2023-02-28T05:17:26;31.00;;;17.50;;
38338;SDS011;37117;50.050;19.924;2023-02-28T05:19:57;32.70;;;18.20;;
38338;SDS011;37117;50.050;19.924;2023-02-28T05:22:43;32.40;;;16.50;;
38338;SDS011;37117;50.050;19.924;2023-02-28T05:25:16;32.60;;;16.40;;
38338;SDS011;37117;50.050;19.924;2023-02-28T05:27:47;32.80;;;16.70;;
38338;SDS011;37117;50.050;19.924;2023-02-28T05:30:18;27.50;;;15.80;;
38338;SDS011;37117;50.050;19.924;2023-02-28T05:32:51;30.60;;;17.60;;
38338;SDS011;37117;50.050;19.924;2023-02-28T05:35:22;32.90;;;19.30;;
38338;SDS011;37117;50.050;19.924;2023-02-28T05:37:54;30.50;;;17.70;;
38338;SDS011;37117;50.050;19.924;2023-02-28T05:40:25;26.90;;;14.70;;
38338;SDS011;37117;50.050;19.924;2023-02-28T05:42:56;32.20;;;16.60;;
38338;SDS011;37117;50.050;19.924;2023-02-28T05:45:27;30.00;;;16.70;;
38338;SDS011;37117;50.050;19.924;2023-02-28T05:47:58;28.10;;;17.20;;
38338;SDS011;37117;50.050;19.924;2023-02-28T05:50:29;27.60;;;15.30;;
38338;SDS011;37117;50.050;19.924;2023-02-28T05:53:00;30.60;;;15.60;;
38338;SDS011;37117;50.050;19.924;2023-02-28T05:55:31;30.20;;;15.50;;
38338;SDS011;37117;50.050;19.924;2023-02-28T05:58:02;27.00;;;14.80;;
38338;SDS011;37117;50.050;19.924;2023-02-28T06:00:33;23.30;;;15.30;;
38338;SDS011;37117;50.050;19.924;2023-02-28T06:03:04;25.80;;;15.40;;
38338;SDS011;37117;50.050;19.924;2023-02-28T06:05:35;27.90;;;15.00;;
38338;SDS011;37117;50.050;19.924;2023-02-28T06:08:07;32.20;;;15.60;;
38338;SDS011;37117;50.050;19.924;2023-02-28T06:10:38;29.50;;;16.60;;
38338;SDS011;37117;50.050;19.924;2023-02-28T06:13:09;31.70;;;16.30;;
38338;SDS011;37117;50.050;19.924;2023-02-28T06:15:41;31.30;;;17.20;;
38338;SDS011;37117;50.050;19.924;2023-02-28T06:18:12;26.20;;;15.90;;
38338;SDS011;37117;50.050;19.924;2023-02-28T06:20:43;27.80;;;15.50;;
38338;SDS011;37117;50.050;19.924;2023-02-28T06:23:14;25.10;;;16.10;;
38338;SDS011;37117;50.050;19.924;2023-02-28T06:25:46;26.90;;;16.00;;
38338;SDS011;37117;50.050;19.924;2023-02-28T06:28:17;35.40;;;16.90;;
38338;SDS011;37117;50.050;19.924;2023-02-28T06:30:48;32.70;;;19.30;;
38338;SDS011;37117;50.050;19.924;2023-02-28T06:33:19;29.20;;;16.00;;
38338;SDS011;37117;50.050;19.924;2023-02-28T06:35:51;31.60;;;18.10;;
38338;SDS011;37117;50.050;19.924;2023-02-28T06:38:22;36.20;;;17.30;;
38338;SDS011;37117;50.050;19.924;2023-02-28T06:40:56;33.80;;;17.90;;
38338;SDS011;37117;50.050;19.924;2023-02-28T06:43:33;39.00;;;18.30;;
38338;SDS011;37117;50.050;19.924;2023-02-28T06:46:10;37.60;;;19.30;;
38338;SDS011;37117;50.050;19.924;2023-02-28T06:48:44;33.90;;;18.20;;
38338;SDS011;37117;50.050;19.924;2023-02-28T06:51:15;33.80;;;20.30;;
38338;SDS011;37117;50.050;19.924;2023-02-28T06:53:46;33.30;;;19.90;;
38338;SDS011;37117;50.050;19.924;2023-02-28T06:56:18;38.90;;;20.40;;
38338;SDS011;37117;50.050;19.924;2023-02-28T06:58:50;37.80;;;20.30;;
38338;SDS011;37117;50.050;19.924;2023-02-28T07:01:22;42.70;;;20.70;;
38338;SDS011;37117;50.050;19.924;2023-02-28T07:03:58;43.80;;;21.40;;
38338;SDS011;37117;50.050;19.924;2023-02-28T07:06:30;46.00;;;23.20;;
38338;SDS011;37117;50.050;19.924;2023-02-28T07:09:01;42.70;;;22.70;;
38338;SDS011;37117;50.050;19.924;2023-02-28T07:11:33;40.20;;;22.10;;
38338;SDS011;37117;50.050;19.924;2023-02-28T07:14:04;37.30;;;20.80;;
38338;SDS011;37117;50.050;19.924;2023-02-28T07:16:36;38.40;;;21.00;;
38338;SDS011;37117;50.050;19.924;2023-02-28T07:19:06;38.80;;;21.20;;
38338;SDS011;37117;50.050;19.924;2023-02-28T07:21:37;42.10;;;21.30;;
38338;SDS011;37117;50.050;19.924;2023-02-28T07:24:08;36.60;;;21.50;;
38338;SDS011;37117;50.050;19.924;2023-02-28T07:26:44;38.00;;;20.20;;
38338;SDS011;37117;50.050;19.924;2023-02-28T07:29:15;33.20;;;18.40;;
38338;SDS011;37117;50.050;19.924;2023-02-28T07:31:46;38.60;;;19.50;;
38338;SDS011;37117;50.050;19.924;2023-02-28T07:34:17;37.00;;;19.60;;
38338;SDS011;37117;50.050;19.924;2023-02-28T07:36:48;30.00;;;18.20;;
38338;SDS011;37117;50.050;19.924;2023-02-28T07:39:23;36.20;;;18.80;;
38338;SDS011;37117;50.050;19.924;2023-02-28T07:41:54;33.70;;;18.50;;
38338;SDS011;37117;50.050;19.924;2023-02-28T07:44:27;35.40;;;19.40;;
38338;SDS011;37117;50.050;19.924;2023-02-28T07:47:02;31.30;;;18.60;;
38338;SDS011;37117;50.050;19.924;2023-02-28T07:49:37;34.80;;;18.50;;
38338;SDS011;37117;50.050;19.924;2023-02-28T07:52:08;32.70;;;16.70;;
38338;SDS011;37117;50.050;19.924;2023-02-28T07:54:40;30.00;;;17.90;;
38338;SDS011;37117;50.050;19.924;2023-02-28T07:57:11;29.80;;;18.30;;
38338;SDS011;37117;50.050;19.924;2023-02-28T07:59:42;26.90;;;17.30;;
38338;SDS011;37117;50.050;19.924;2023-02-28T08:02:15;30.90;;;17.40;;
38338;SDS011;37117;50.050;19.924;2023-02-28T08:04:46;30.50;;;16.80;;
38338;SDS011;37117;50.050;19.924;2023-02-28T08:07:18;30.40;;;16.40;;
38338;SDS011;37117;50.050;19.924;2023-02-28T08:09:49;24.90;;;13.90;;
38338;SDS011;37117;50.050;19.924;2023-02-28T08:12:20;25.10;;;14.40;;
38338;SDS011;37117;50.050;19.924;2023-02-28T08:14:51;25.60;;;15.00;;
38338;SDS011;37117;50.050;19.924;2023-02-28T08:17:21;31.80;;;15.80;;
38338;SDS011;37117;50.050;19.924;2023-02-28T08:19:52;30.10;;;14.80;;
38338;SDS011;37117;50.050;19.924;2023-02-28T08:22:23;24.00;;;13.70;;
38338;SDS011;37117;50.050;19.924;2023-02-28T08:24:54;26.60;;;13.40;;
38338;SDS011;37117;50.050;19.924;2023-02-28T08:27:29;23.40;;;13.20;;
38338;SDS011;37117;50.050;19.924;2023-02-28T08:30:01;23.50;;;12.80;;
38338;SDS011;37117;50.050;19.924;2023-02-28T08:32:33;26.20;;;13.50;;
38338;SDS011;37117;50.050;19.924;2023-02-28T08:35:05;24.30;;;12.90;;
38338;SDS011;37117;50.050;19.924;2023-02-28T08:37:36;27.50;;;13.70;;
38338;SDS011;37117;50.050;19.924;2023-02-28T08:40:08;24.60;;;13.60;;
38338;SDS011;37117;50.050;19.924;2023-02-28T08:42:39;22.70;;;12.80;;
38338;SDS011;37117;50.050;19.924;2023-02-28T08:45:11;19.20;;;11.80;;
38338;SDS011;37117;50.050;19.924;2023-02-28T08:47:44;24.00;;;10.20;;
38338;SDS011;37117;50.050;19.924;2023-02-28T08:50:16;19.60;;;11.00;;
38338;SDS011;37117;50.050;19.924;2023-02-28T08:52:46;18.10;;;10.00;;
38338;SDS011;37117;50.050;19.924;2023-02-28T08:55:18;19.00;;;9.10;;
38338;SDS011;37117;50.050;19.924;2023-02-28T08:57:48;15.70;;;8.70;;
38338;SDS011;37117;50.050;19.924;2023-02-28T09:00:21;13.80;;;7.60;;
38338;SDS011;37117;50.050;19.924;2023-02-28T09:02:51;14.00;;;7.90;;
38338;SDS011;37117;50.050;19.924;2023-02-28T09:05:24;14.00;;;7.60;;
38338;SDS011;37117;50.050;19.924;2023-02-28T09:07:55;13.50;;;7.40;;
38338;SDS011;37117;50.050;19.924;2023-02-28T09:10:26;17.30;;;9.30;;
38338;SDS011;37117;50.050;19.924;2023-02-28T09:12:56;16.70;;;8.10;;
38338;SDS011;37117;50.050;19.924;2023-02-28T09:15:29;12.20;;;8.10;;
38338;SDS011;37117;50.050;19.924;2023-02-28T09:18:00;13.10;;;7.80;;
38338;SDS011;37117;50.050;19.924;2023-02-28T09:20:31;9.10;;;6.40;;
38338;SDS011;37117;50.050;19.924;2023-02-28T09:23:01;19.80;;;8.40;;
38338;SDS011;37117;50.050;19.924;2023-02-28T09:25:33;11.80;;;6.40;;
38338;SDS011;37117;50.050;19.924;2023-02-28T09:28:03;13.90;;;7.20;;
38338;SDS011;37117;50.050;19.924;2023-02-28T09:30:35;14.30;;;7.70;;
38338;SDS011;37117;50.050;19.924;2023-02-28T09:33:06;13.90;;;8.80;;
38338;SDS011;37117;50.050;19.924;2023-02-28T09:35:37;12.30;;;6.80;;
38338;SDS011;37117;50.050;19.924;2023-02-28T09:38:08;11.60;;;6.90;;
38338;SDS011;37117;50.050;19.924;2023-02-28T09:40:40;13.00;;;7.10;;
38338;SDS011;37117;50.050;19.924;2023-02-28T09:43:11;13.00;;;7.50;;
38338;SDS011;37117;50.050;19.924;2023-02-28T09:45:46;14.10;;;7.50;;
38338;SDS011;37117;50.050;19.924;2023-02-28T09:48:19;19.80;;;8.10;;
38338;SDS011;37117;50.050;19.924;2023-02-28T09:50:55;10.80;;;7.30;;
38338;SDS011;37117;50.050;19.924;2023-02-28T09:53:28;13.70;;;8.00;;
38338;SDS011;37117;50.050;19.924;2023-02-28T09:56:04;10.80;;;6.90;;
38338;SDS011;37117;50.050;19.924;2023-02-28T09:58:40;16.20;;;7.80;;
38338;SDS011;37117;50.050;19.924;2023-02-28T10:01:17;13.70;;;8.50;;
38338;SDS011;37117;50.050;19.924;2023-02-28T10:03:51;16.60;;;7.40;;
38338;SDS011;37117;50.050;19.924;2023-02-28T10:06:32;13.60;;;9.00;;
38338;SDS011;37117;50.050;19.924;2023-02-28T10:09:06;16.60;;;8.90;;
38338;SDS011;37117;50.050;19.924;2023-02-28T10:11:40;15.30;;;8.50;;
38338;SDS011;37117;50.050;19.924;2023-02-28T10:14:12;14.80;;;8.00;;
38338;SDS011;37117;50.050;19.924;2023-02-28T10:16:46;15.30;;;8.90;;
38338;SDS011;37117;50.050;19.924;2023-02-28T10:19:22;16.40;;;9.50;;
38338;SDS011;37117;50.050;19.924;2023-02-28T10:21:56;15.80;;;9.80;;
38338;SDS011;37117;50.050;19.924;2023-02-28T10:24:28;14.80;;;9.40;;
38338;SDS011;37117;50.050;19.924;2023-02-28T10:27:01;13.80;;;8.00;;
38338;SDS011;37117;50.050;19.924;2023-02-28T10:29:36;14.40;;;8.00;;
38338;SDS011;37117;50.050;19.924;2023-02-28T10:34:39;14.50;;;8.00;;
38338;SDS011;37117;50.050;19.924;2023-02-28T10:37:10;16.60;;;9.40;;
38338;SDS011;37117;50.050;19.924;2023-02-28T10:39:42;15.30;;;9.60;;
38338;SDS011;37117;50.050;19.924;2023-02-28T10:42:25;14.70;;;9.60;;
38338;SDS011;37117;50.050;19.924;2023-02-28T10:45:09;13.80;;;8.60;;
38338;SDS011;37117;50.050;19.924;2023-02-28T10:47:48;15.20;;;9.40;;
38338;SDS011;37117;50.050;19.924;2023-02-28T10:53:24;16.40;;;9.30;;
38338;SDS011;37117;50.050;19.924;2023-02-28T10:56:01;15.20;;;9.40;;
38338;SDS011;37117;50.050;19.924;2023-02-28T10:58:44;14.30;;;8.90;;
38338;SDS011;37117;50.050;19.924;2023-02-28T11:01:18;14.10;;;10.60;;
38338;SDS011;37117;50.050;19.924;2023-02-28T11:03:50;16.50;;;9.50;;
38338;SDS011;37117;50.050;19.924;2023-02-28T11:06:22;14.00;;;9.10;;
38338;SDS011;37117;50.050;19.924;2023-02-28T11:08:54;15.50;;;9.30;;
38338;SDS011;37117;50.050;19.924;2023-02-28T11:11:26;14.60;;;9.40;;
38338;SDS011;37117;50.050;19.924;2023-02-28T11:14:04;15.50;;;10.60;;
38338;SDS011;37117;50.050;19.924;2023-02-28T11:16:36;15.40;;;8.70;;
38338;SDS011;37117;50.050;19.924;2023-02-28T11:19:15;14.70;;;9.10;;
38338;SDS011;37117;50.050;19.924;2023-02-28T11:21:51;16.00;;;10.60;;
38338;SDS011;37117;50.050;19.924;2023-02-28T11:24:24;12.80;;;8.90;;
38338;SDS011;37117;50.050;19.924;2023-02-28T11:26:56;15.30;;;8.60;;
38338;SDS011;37117;50.050;19.924;2023-02-28T11:29:28;14.60;;;8.90;;
38338;SDS011;37117;50.050;19.924;2023-02-28T11:32:04;14.90;;;8.90;;
38338;SDS011;37117;50.050;19.924;2023-02-28T11:34:36;17.10;;;9.20;;
38338;SDS011;37117;50.050;19.924;2023-02-28T11:37:09;15.90;;;9.40;;
38338;SDS011;37117;50.050;19.924;2023-02-28T11:39:42;18.90;;;11.50;;
38338;SDS011;37117;50.050;19.924;2023-02-28T11:42:17;18.90;;;9.90;;
38338;SDS011;37117;50.050;19.924;2023-02-28T11:44:54;13.60;;;8.10;;
38338;SDS011;37117;50.050;19.924;2023-02-28T11:47:32;16.90;;;9.90;;
38338;SDS011;37117;50.050;19.924;2023-02-28T11:50:07;16.10;;;9.10;;
38338;SDS011;37117;50.050;19.924;2023-02-28T11:52:43;14.20;;;8.80;;
38338;SDS011;37117;50.050;19.924;2023-02-28T11:55:17;14.10;;;8.70;;
38338;SDS011;37117;50.050;19.924;2023-02-28T12:00:44;16.30;;;9.60;;
38338;SDS011;37117;50.050;19.924;2023-02-28T12:03:21;15.60;;;8.70;;
38338;SDS011;37117;50.050;19.924;2023-02-28T12:05:56;15.10;;;8.60;;
38338;SDS011;37117;50.050;19.924;2023-02-28T12:08:36;17.40;;;8.80;;
38338;SDS011;37117;50.050;19.924;2023-02-28T12:11:11;16.40;;;9.30;;
38338;SDS011;37117;50.050;19.924;2023-02-28T12:13:48;11.70;;;8.10;;
38338;SDS011;37117;50.050;19.924;2023-02-28T12:16:42;13.80;;;8.60;;
38338;SDS011;37117;50.050;19.924;2023-02-28T12:19:20;17.70;;;8.90;;
38338;SDS011;37117;50.050;19.924;2023-02-28T12:22:15;18.30;;;9.10;;
38338;SDS011;37117;50.050;19.924;2023-02-28T12:24:57;15.50;;;9.00;;
38338;SDS011;37117;50.050;19.924;2023-02-28T12:27:33;15.30;;;8.90;;
38338;SDS011;37117;50.050;19.924;2023-02-28T12:30:06;12.00;;;8.50;;
38338;SDS011;37117;50.050;19.924;2023-02-28T12:32:44;13.70;;;8.80;;
38338;SDS011;37117;50.050;19.924;2023-02-28T12:35:18;12.70;;;8.20;;
38338;SDS011;37117;50.050;19.924;2023-02-28T12:37:51;15.40;;;8.60;;
38338;SDS011;37117;50.050;19.924;2023-02-28T12:40:27;12.20;;;7.80;;
38338;SDS011;37117;50.050;19.924;2023-02-28T12:42:59;14.20;;;8.30;;
38338;SDS011;37117;50.050;19.924;2023-02-28T12:45:36;14.30;;;9.10;;
38338;SDS011;37117;50.050;19.924;2023-02-28T12:48:10;15.30;;;9.00;;
38338;SDS011;37117;50.050;19.924;2023-02-28T12:50:48;19.30;;;10.70;;
38338;SDS011;37117;50.050;19.924;2023-02-28T12:53:21;14.80;;;8.40;;
38338;SDS011;37117;50.050;19.924;2023-02-28T12:55:59;15.00;;;9.20;;
38338;SDS011;37117;50.050;19.924;2023-02-28T12:58:34;14.00;;;8.80;;
38338;SDS011;37117;50.050;19.924;2023-02-28T13:01:12;14.40;;;9.40;;
38338;SDS011;37117;50.050;19.924;2023-02-28T13:09:26;16.30;;;9.80;;
38338;SDS011;37117;50.050;19.924;2023-02-28T13:11:58;14.20;;;9.30;;
38338;SDS011;37117;50.050;19.924;2023-02-28T13:14:30;13.10;;;9.60;;
38338;SDS011;37117;50.050;19.924;2023-02-28T13:17:11;12.40;;;8.60;;
38338;SDS011;37117;50.050;19.924;2023-02-28T13:19:43;16.20;;;9.20;;
38338;SDS011;37117;50.050;19.924;2023-02-28T13:22:18;15.10;;;8.10;;
38338;SDS011;37117;50.050;19.924;2023-02-28T13:24:52;16.70;;;9.50;;
38338;SDS011;37117;50.050;19.924;2023-02-28T13:27:33;14.60;;;8.60;;
38338;SDS011;37117;50.050;19.924;2023-02-28T13:32:54;13.60;;;8.40;;
38338;SDS011;37117;50.050;19.924;2023-02-28T13:35:46;11.90;;;8.20;;
38338;SDS011;37117;50.050;19.924;2023-02-28T13:44:02;13.20;;;7.30;;
38338;SDS011;37117;50.050;19.924;2023-02-28T13:46:34;12.80;;;8.20;;
38338;SDS011;37117;50.050;19.924;2023-02-28T13:49:25;13.90;;;8.00;;
38338;SDS011;37117;50.050;19.924;2023-02-28T13:52:02;11.20;;;7.60;;
38338;SDS011;37117;50.050;19.924;2023-02-28T13:54:45;12.90;;;8.60;;
38338;SDS011;37117;50.050;19.924;2023-02-28T13:57:23;11.80;;;7.90;;
38338;SDS011;37117;50.050;19.924;2023-02-28T13:59:59;13.00;;;8.10;;
38338;SDS011;37117;50.050;19.924;2023-02-28T14:05:12;11.90;;;7.90;;
38338;SDS011;37117;50.050;19.924;2023-02-28T14:07:49;15.70;;;9.10;;
38338;SDS011;37117;50.050;19.924;2023-02-28T14:10:28;11.50;;;8.00;;
38338;SDS011;37117;50.050;19.924;2023-02-28T14:13:00;10.90;;;8.20;;
38338;SDS011;37117;50.050;19.924;2023-02-28T14:18:18;13.40;;;8.00;;
38338;SDS011;37117;50.050;19.924;2023-02-28T14:20:52;13.10;;;8.10;;
38338;SDS011;37117;50.050;19.924;2023-02-28T14:23:30;13.30;;;8.00;;
38338;SDS011;37117;50.050;19.924;2023-02-28T14:26:06;11.60;;;7.90;;
38338;SDS011;37117;50.050;19.924;2023-02-28T14:28:46;13.80;;;9.20;;
38338;SDS011;37117;50.050;19.924;2023-02-28T14:31:23;14.00;;;8.90;;
38338;SDS011;37117;50.050;19.924;2023-02-28T14:34:05;12.10;;;8.20;;
38338;SDS011;37117;50.050;19.924;2023-02-28T14:36:44;11.70;;;8.20;;
38338;SDS011;37117;50.050;19.924;2023-02-28T14:39:16;12.30;;;8.00;;
38338;SDS011;37117;50.050;19.924;2023-02-28T14:41:48;12.50;;;7.90;;
38338;SDS011;37117;50.050;19.924;2023-02-28T14:44:19;11.20;;;7.70;;
38338;SDS011;37117;50.050;19.924;2023-02-28T14:46:52;12.50;;;8.60;;
38338;SDS011;37117;50.050;19.924;2023-02-28T14:49:26;13.90;;;8.40;;
38338;SDS011;37117;50.050;19.924;2023-02-28T14:52:05;14.00;;;8.20;;
38338;SDS011;37117;50.050;19.924;2023-02-28T14:54:39;13.40;;;8.20;;
38338;SDS011;37117;50.050;19.924;2023-02-28T14:57:21;11.90;;;8.00;;
38338;SDS011;37117;50.050;19.924;2023-02-28T14:59:58;13.20;;;8.10;;
38338;SDS011;37117;50.050;19.924;2023-02-28T15:02:30;11.70;;;7.30;;
38338;SDS011;37117;50.050;19.924;2023-02-28T15:05:07;12.40;;;8.10;;
38338;SDS011;37117;50.050;19.924;2023-02-28T15:07:42;10.60;;;7.90;;
38338;SDS011;37117;50.050;19.924;2023-02-28T15:10:16;14.00;;;9.10;;
38338;SDS011;37117;50.050;19.924;2023-02-28T15:12:51;11.00;;;8.30;;
38338;SDS011;37117;50.050;19.924;2023-02-28T15:15:23;11.30;;;8.30;;
38338;SDS011;37117;50.050;19.924;2023-02-28T15:18:10;13.30;;;8.60;;
38338;SDS011;37117;50.050;19.924;2023-02-28T15:20:45;11.80;;;8.60;;
38338;SDS011;37117;50.050;19.924;2023-02-28T15:23:16;13.00;;;7.90;;
38338;SDS011;37117;50.050;19.924;2023-02-28T15:25:47;14.20;;;9.10;;
38338;SDS011;37117;50.050;19.924;2023-02-28T15:28:19;14.10;;;8.10;;